Time;durP1;ratioP1;P1;durP2;ratioP2;P2;SDS_P1;SDS_P2;PMS_P1;PMS_P2;Temp;Humidity;BMP_temperature;BMP_pressure;BME280_temperature;BME280_humidity;BME280_pressure;Samples;Min_cycle;Max_cycle;Signal;HPM_P1;HPM_P2
2021/09/26 00:02:16;;;;;;;5.93;4.23;;;;;;;;;;10237932;28;20521;-64
2021/09/26 00:07:13;;;;;;;4.95;3.33;;;;;;;;;;10232766;28;20033;-65
2021/09/26 00:12:11;;;;;;;4.77;3.43;;;;;;;;;;10235302;28;20034;-64
2021/09/26 00:17:08;;;;;;;4.30;3.43;;;;;;;;;;10233622;28;20025;-65
2021/09/26 00:22:06;;;;;;;5.70;4.13;;;;;;;;;;10222799;28;20042;-64
2021/09/26 00:27:03;;;;;;;2.90;2.60;;;;;;;;;;10252392;28;20041;-67
2021/09/26 00:32:01;;;;;;;6.70;3.63;;;;;;;;;;10230862;28;20029;-64
2021/09/26 00:36:58;;;;;;;3.83;3.13;;;;;;;;;;10232280;28;20041;-64
2021/09/26 00:41:56;;;;;;;5.47;3.70;;;;;;;;;;10230531;28;20038;-67
2021/09/26 00:46:53;;;;;;;6.80;3.10;;;;;;;;;;10258030;28;20055;-64
2021/09/26 00:51:51;;;;;;;5.90;3.63;;;;;;;;;;10255872;28;20117;-62
2021/09/26 00:56:49;;;;;;;3.88;1.85;;;;;;;;;;10253411;28;20037;-63
2021/09/26 01:01:47;;;;;;;4.70;3.20;;;;;;;;;;10267221;28;20042;-63
2021/09/26 01:06:54;;;;;;;1.65;0.88;;;;;;;;;;10258907;28;20295;-64
2021/09/26 01:12:10;;;;;;;0.63;0.60;;;;;;;;;;10287530;28;20049;-64
2021/09/26 01:17:07;;;;;;;4.75;3.40;;;;;;;;;;10297212;28;20045;-63
2021/09/26 01:22:09;;;;;;;5.53;4.00;;;;;;;;;;10295942;28;20033;-62
2021/09/26 01:27:24;;;;;;;5.72;3.55;;;;;;;;;;10265533;28;20687;-63
2021/09/26 01:32:22;;;;;;;9.05;4.22;;;;;;;;;;10290952;28;20033;-66
2021/09/26 01:37:25;;;;;;;5.75;3.92;;;;;;;;;;10275799;28;20037;-64
2021/09/26 01:42:25;;;;;;;5.80;3.53;;;;;;;;;;10294018;28;20021;-65
2021/09/26 01:47:27;;;;;;;3.92;2.67;;;;;;;;;;10302704;28;20029;-65
2021/09/26 01:52:26;;;;;;;7.47;3.95;;;;;;;;;;10275354;28;20064;-67
2021/09/26 01:57:24;;;;;;;5.63;4.43;;;;;;;;;;10294559;28;20040;-66
2021/09/26 02:02:23;;;;;;;4.80;2.87;;;;;;;;;;10299730;28;20064;-65
2021/09/26 02:07:21;;;;;;;5.80;4.32;;;;;;;;;;10300022;28;20037;-65
2021/09/26 02:12:18;;;;;;;2.40;1.95;;;;;;;;;;10288066;28;20030;-65
2021/09/26 02:17:16;;;;;;;7.37;4.80;;;;;;;;;;10301380;28;20037;-64
2021/09/26 02:22:14;;;;;;;8.38;6.18;;;;;;;;;;10296398;28;20034;-66
2021/09/26 02:27:12;;;;;;;5.57;4.20;;;;;;;;;;10295967;28;20045;-66
2021/09/26 02:32:09;;;;;;;7.10;4.87;;;;;;;;;;10290283;28;20029;-63
2021/09/26 02:37:07;;;;;;;12.23;7.30;;;;;;;;;;10295433;28;20120;-65
2021/09/26 02:42:22;;;;;;;7.03;5.77;;;;;;;;;;10268395;28;20507;-65
2021/09/26 02:47:23;;;;;;;3.58;2.67;;;;;;;;;;10260201;28;20052;-67
2021/09/26 02:52:21;;;;;;;2.88;2.30;;;;;;;;;;10275758;28;20112;-63
2021/09/26 02:57:19;;;;;;;9.32;5.70;;;;;;;;;;10296498;28;20036;-63
2021/09/26 03:02:16;;;;;;;7.17;5.77;;;;;;;;;;10316173;28;20035;-63
2021/09/26 03:07:13;;;;;;;10.10;5.17;;;;;;;;;;10314618;28;20578;-63
2021/09/26 03:12:13;;;;;;;9.50;5.53;;;;;;;;;;10306104;28;20042;-64
2021/09/26 03:17:10;;;;;;;7.75;5.53;;;;;;;;;;10292217;28;20040;-64
2021/09/26 03:22:08;;;;;;;5.35;4.35;;;;;;;;;;10303733;28;20033;-66
2021/09/26 03:27:10;;;;;;;4.20;3.03;;;;;;;;;;10285395;28;20061;-65
2021/09/26 03:32:09;;;;;;;4.78;3.53;;;;;;;;;;10262322;28;20046;-63
2021/09/26 03:37:06;;;;;;;4.88;2.45;;;;;;;;;;10316635;28;20057;-63
2021/09/26 03:42:04;;;;;;;12.40;3.83;;;;;;;;;;10314580;28;20058;-63
2021/09/26 03:47:02;;;;;;;3.75;2.53;;;;;;;;;;10296457;28;20034;-65
2021/09/26 03:52:00;;;;;;;7.40;4.80;;;;;;;;;;10287376;28;20046;-64
2021/09/26 03:56:57;;;;;;;7.43;4.30;;;;;;;;;;10285796;28;20045;-63
2021/09/26 04:01:54;;;;;;;6.60;4.63;;;;;;;;;;10307736;28;20042;-64
2021/09/26 04:06:52;;;;;;;10.83;6.80;;;;;;;;;;10309160;28;20424;-65
2021/09/26 04:11:50;;;;;;;9.80;7.43;;;;;;;;;;10309804;28;20045;-64
2021/09/26 04:16:52;;;;;;;9.57;5.17;;;;;;;;;;10310517;28;20048;-64
2021/09/26 04:21:50;;;;;;;9.02;5.63;;;;;;;;;;10269151;28;20048;-64
2021/09/26 04:26:48;;;;;;;7.15;6.30;;;;;;;;;;10310990;28;20041;-63
2021/09/26 04:31:45;;;;;;;12.97;8.40;;;;;;;;;;10290523;28;20045;-63
2021/09/26 04:36:43;;;;;;;11.53;8.93;;;;;;;;;;10285183;28;20399;-63
2021/09/26 04:41:40;;;;;;;9.73;7.40;;;;;;;;;;10271181;28;20041;-64
2021/09/26 04:46:37;;;;;;;10.37;6.97;;;;;;;;;;10229979;28;20034;-63
2021/09/26 04:51:35;;;;;;;12.00;8.60;;;;;;;;;;10237689;28;20034;-65
2021/09/26 04:56:33;;;;;;;14.38;9.32;;;;;;;;;;10266081;28;20034;-63
2021/09/26 05:01:30;;;;;;;7.07;5.60;;;;;;;;;;10256817;28;20045;-65
2021/09/26 05:06:27;;;;;;;2.97;1.37;;;;;;;;;;10218524;28;20422;-65
2021/09/26 05:11:25;;;;;;;2.30;1.40;;;;;;;;;;10227685;28;20412;-65
2021/09/26 05:16:22;;;;;;;5.27;2.47;;;;;;;;;;10218319;28;20033;-67
2021/09/26 05:21:20;;;;;;;6.90;2.60;;;;;;;;;;10213465;28;20133;-65
2021/09/26 05:26:17;;;;;;;3.80;2.70;;;;;;;;;;10237358;28;20042;-67
2021/09/26 05:31:15;;;;;;;4.73;2.67;;;;;;;;;;10241729;28;20078;-65
2021/09/26 05:36:12;;;;;;;2.67;2.27;;;;;;;;;;10232163;28;20034;-66
2021/09/26 05:41:09;;;;;;;3.00;1.90;;;;;;;;;;10245033;28;20046;-66
2021/09/26 05:46:07;;;;;;;5.30;2.20;;;;;;;;;;10217724;28;20032;-66
2021/09/26 05:51:04;;;;;;;5.53;2.20;;;;;;;;;;10236795;28;20049;-68
2021/09/26 05:56:02;;;;;;;4.10;2.23;;;;;;;;;;10217268;28;20034;-66
2021/09/26 06:00:59;;;;;;;2.27;2.07;;;;;;;;;;10212467;28;20100;-65
2021/09/26 06:05:56;;;;;;;5.00;2.50;;;;;;;;;;10232582;28;20324;-65
2021/09/26 06:10:54;;;;;;;6.13;2.63;;;;;;;;;;10229632;28;20112;-66
2021/09/26 06:15:51;;;;;;;2.97;1.93;;;;;;;;;;10237278;28;20506;-66
2021/09/26 06:20:49;;;;;;;3.50;2.27;;;;;;;;;;10218609;28;20029;-65
2021/09/26 06:25:46;;;;;;;3.40;2.17;;;;;;;;;;10217221;28;20042;-66
2021/09/26 06:30:44;;;;;;;3.20;2.67;;;;;;;;;;10234429;28;20415;-66
2021/09/26 06:35:42;;;;;;;5.90;2.57;;;;;;;;;;10235458;28;20029;-65
2021/09/26 06:40:39;;;;;;;2.43;1.90;;;;;;;;;;10229188;28;20496;-66
2021/09/26 06:45:36;;;;;;;3.07;2.70;;;;;;;;;;10229915;28;20034;-66
2021/09/26 06:50:34;;;;;;;7.30;2.77;;;;;;;;;;10223688;28;20033;-66
2021/09/26 06:55:31;;;;;;;2.40;1.93;;;;;;;;;;10223138;28;20403;-66
2021/09/26 07:00:29;;;;;;;4.50;2.33;;;;;;;;;;10207590;28;20050;-65
2021/09/26 07:05:26;;;;;;;2.97;2.30;;;;;;;;;;10231867;28;20511;-65
2021/09/26 07:10:23;;;;;;;3.40;2.10;;;;;;;;;;10199001;28;20037;-65
2021/09/26 07:15:22;;;;;;;5.00;3.58;;;;;;;;;;10227350;28;20436;-65
2021/09/26 07:20:19;;;;;;;5.23;3.10;;;;;;;;;;10214039;28;20026;-66
2021/09/26 07:25:17;;;;;;;6.33;3.07;;;;;;;;;;10235622;28;20041;-64
2021/09/26 07:30:14;;;;;;;6.30;2.73;;;;;;;;;;10228282;28;20038;-65
2021/09/26 07:35:12;;;;;;;5.97;2.87;;;;;;;;;;10227650;28;20039;-66
2021/09/26 07:40:10;;;;;;;8.75;3.03;;;;;;;;;;10220086;28;20156;-65
2021/09/26 07:45:10;;;;;;;6.38;2.63;;;;;;;;;;10222936;28;20661;-66
2021/09/26 07:50:08;;;;;;;3.58;2.63;;;;;;;;;;10223533;28;20066;-67
2021/09/26 07:55:06;;;;;;;5.00;2.40;;;;;;;;;;10222655;28;20054;-66
2021/09/26 08:00:04;;;;;;;3.55;2.33;;;;;;;;;;10207450;28;20066;-65
2021/09/26 08:05:09;;;;;;;1.75;1.20;;;;;;;;;;10236792;28;20045;-65
2021/09/26 08:10:07;;;;;;;4.93;2.40;;;;;;;;;;10236240;28;20049;-66
2021/09/26 08:15:05;;;;;;;;;;;;;;;;;;10210383;28;20491;-66
2021/09/26 08:20:03;;;;;;;4.20;2.30;;;;;;;;;;10228130;28;20357;-67
2021/09/26 08:25:02;;;;;;;4.28;2.05;;;;;;;;;;10227875;28;20133;-68
2021/09/26 08:29:59;;;;;;;2.90;2.20;;;;;;;;;;10231541;28;20392;-66
2021/09/26 08:34:57;;;;;;;;;;;;;;;;;;10228389;28;20030;-64
2021/09/26 08:39:54;;;;;;;2.90;1.52;;;;;;;;;;10213872;28;20524;-64
2021/09/26 08:44:51;;;;;;;;;;;;;;;;;;10227913;28;20066;-66
2021/09/26 08:49:50;;;;;;;2.22;1.67;;;;;;;;;;10207906;28;20287;-66
2021/09/26 08:54:49;;;;;;;1.42;1.00;;;;;;;;;;10228562;28;20503;-66
2021/09/26 08:59:46;;;;;;;3.13;1.45;;;;;;;;;;10230003;28;20034;-65
2021/09/26 09:04:43;;;;;;;2.10;1.60;;;;;;;;;;10212587;28;20404;-66
2021/09/26 09:09:49;;;;;;;1.27;1.17;;;;;;;;;;10238553;28;20480;-66
2021/09/26 09:14:54;;;;;;;0.80;0.80;;;;;;;;;;10249974;28;20508;-66
2021/09/26 09:20:17;;;;;;;2.97;2.03;;;;;;;;;;10214771;28;20034;-65
2021/09/26 09:25:30;;;;;;;2.78;2.00;;;;;;;;;;10230617;28;20578;-63
2021/09/26 09:30:29;;;;;;;3.20;2.10;;;;;;;;;;10227228;28;21057;-64
2021/09/26 09:35:29;;;;;;;3.90;2.67;;;;;;;;;;10221006;28;20117;-67
2021/09/26 09:40:26;;;;;;;2.45;1.52;;;;;;;;;;10228819;28;20534;-66
2021/09/26 09:45:23;;;;;;;4.03;1.20;;;;;;;;;;10209440;28;20054;-66
2021/09/26 09:50:21;;;;;;;1.90;1.67;;;;;;;;;;10225580;28;20052;-65
2021/09/26 09:55:19;;;;;;;3.37;2.03;;;;;;;;;;10238813;28;20080;-67
2021/09/26 10:00:22;;;;;;;7.57;3.17;;;;;;;;;;10231630;28;20038;-66
2021/09/26 10:05:34;;;;;;;5.63;3.33;;;;;;;;;;10231537;28;20411;-66
2021/09/26 10:10:32;;;;;;;2.38;1.58;;;;;;;;;;10227385;28;20821;-66
2021/09/26 10:15:30;;;;;;;2.90;1.63;;;;;;;;;;10232338;28;20385;-66
2021/09/26 10:20:27;;;;;;;11.93;4.03;;;;;;;;;;10225744;28;20306;-66
2021/09/26 10:25:25;;;;;;;3.08;1.55;;;;;;;;;;10216680;28;20038;-66
2021/09/26 10:30:23;;;;;;;3.80;1.70;;;;;;;;;;10231672;28;20045;-65
2021/09/26 10:35:20;;;;;;;1.77;1.67;;;;;;;;;;10240981;28;20041;-67
2021/09/26 10:40:18;;;;;;;1.35;1.25;;;;;;;;;;10268830;28;20136;-65
2021/09/26 10:45:25;;;;;;;3.55;2.17;;;;;;;;;;10275943;28;20045;-65
2021/09/26 10:50:23;;;;;;;;;;;;;;;;;;10262581;28;20042;-65
2021/09/26 10:55:24;;;;;;;2.95;1.23;;;;;;;;;;10252936;28;20345;-68
2021/09/26 11:00:28;;;;;;;2.10;1.63;;;;;;;;;;10243067;28;20403;-68
2021/09/26 11:05:27;;;;;;;3.45;2.63;;;;;;;;;;10266487;28;20117;-66
2021/09/26 11:10:34;;;;;;;4.15;2.45;;;;;;;;;;10265670;28;20113;-65
2021/09/26 11:15:31;;;;;;;3.88;1.77;;;;;;;;;;10267023;28;20021;-66
2021/09/26 11:20:29;;;;;;;2.50;1.57;;;;;;;;;;10262397;28;20034;-66
2021/09/26 11:25:26;;;;;;;3.67;1.70;;;;;;;;;;10265550;28;20041;-65
2021/09/26 11:30:26;;;;;;;4.07;2.53;;;;;;;;;;10265325;28;20033;-66
2021/09/26 11:35:25;;;;;;;1.88;1.58;;;;;;;;;;10260403;28;20037;-66
2021/09/26 11:40:42;;;;;;;2.28;2.00;;;;;;;;;;10272816;28;20049;-66
2021/09/26 11:45:40;;;;;;;2.53;1.25;;;;;;;;;;10282009;28;20049;-65
2021/09/26 11:50:38;;;;;;;1.70;1.60;;;;;;;;;;10269303;28;20045;-66
2021/09/26 11:55:36;;;;;;;2.47;1.17;;;;;;;;;;10262244;28;20287;-66
2021/09/26 12:00:35;;;;;;;2.80;1.63;;;;;;;;;;10269900;28;20539;-65
2021/09/26 12:05:37;;;;;;;1.90;1.17;;;;;;;;;;10254646;28;20040;-65
2021/09/26 12:10:34;;;;;;;1.90;1.33;;;;;;;;;;10277324;28;20037;-66
2021/09/26 12:15:32;;;;;;;4.20;2.17;;;;;;;;;;10279550;28;20038;-66
2021/09/26 12:20:29;;;;;;;1.10;1.00;;;;;;;;;;10282875;28;20036;-63
2021/09/26 12:25:26;;;;;;;5.60;2.53;;;;;;;;;;10274243;28;20280;-64
2021/09/26 12:30:26;;;;;;;2.03;1.50;;;;;;;;;;10288891;28;20030;-66
2021/09/26 12:35:34;;;;;;;6.55;2.70;;;;;;;;;;10279784;28;20415;-63
2021/09/26 12:40:34;;;;;;;4.90;2.72;;;;;;;;;;10265514;28;20065;-65
2021/09/26 12:45:39;;;;;;;4.22;2.05;;;;;;;;;;10287133;28;20034;-65
2021/09/26 12:50:40;;;;;;;3.28;2.40;;;;;;;;;;10274279;28;20029;-64
2021/09/26 12:55:39;;;;;;;3.80;2.80;;;;;;;;;;10267805;28;20968;-65
2021/09/26 13:00:38;;;;;;;5.03;2.95;;;;;;;;;;10278030;28;20051;-67
2021/09/26 13:05:36;;;;;;;2.70;2.28;;;;;;;;;;10277775;28;20088;-65
2021/09/26 13:10:34;;;;;;;5.45;2.35;;;;;;;;;;10253101;28;20041;-64
2021/09/26 13:15:32;;;;;;;7.20;1.67;;;;;;;;;;10261309;28;20026;-65
2021/09/26 13:20:31;;;;;;;2.83;2.42;;;;;;;;;;10253760;28;20052;-65
2021/09/26 13:25:37;;;;;;;8.15;2.17;;;;;;;;;;10277021;28;20661;-64
2021/09/26 13:30:38;;;;;;;6.07;2.65;;;;;;;;;;10273860;28;21704;-63
2021/09/26 13:35:37;;;;;;;4.30;2.70;;;;;;;;;;10271314;28;20594;-64
2021/09/26 13:40:36;;;;;;;7.18;4.03;;;;;;;;;;10275880;28;20193;-64
2021/09/26 13:45:34;;;;;;;5.72;2.88;;;;;;;;;;10250575;28;20041;-64
2021/09/26 13:50:32;;;;;;;4.13;2.95;;;;;;;;;;10241157;28;20137;-64
2021/09/26 13:55:29;;;;;;;7.97;3.65;;;;;;;;;;10249475;28;20579;-64
2021/09/26 14:00:26;;;;;;;0.57;0.57;;;;;;;;;;10251351;28;20106;-64
2021/09/26 14:05:24;;;;;;;1.93;1.50;;;;;;;;;;10215324;28;20034;-64
2021/09/26 14:10:22;;;;;;;4.95;3.63;;;;;;;;;;10229619;28;20296;-64
2021/09/26 14:15:19;;;;;;;5.43;2.97;;;;;;;;;;10222590;28;20049;-67
2021/09/26 14:20:17;;;;;;;5.20;3.47;;;;;;;;;;10207879;28;20538;-64
2021/09/26 14:25:15;;;;;;;0.60;0.50;;;;;;;;;;10211440;28;20034;-65
2021/09/26 14:30:13;;;;;;;0.60;0.60;;;;;;;;;;10235498;28;20653;-64
2021/09/26 14:35:11;;;;;;;3.13;1.83;;;;;;;;;;10209829;28;20460;-64
2021/09/26 14:40:12;;;;;;;2.63;1.90;;;;;;;;;;10227166;28;20049;-65
2021/09/26 14:45:10;;;;;;;1.63;1.48;;;;;;;;;;10227738;28;21352;-65
2021/09/26 14:50:08;;;;;;;2.88;1.88;;;;;;;;;;10218064;28;20045;-65
2021/09/26 14:55:05;;;;;;;;;;;;;;;;;;10229610;28;20506;-65
2021/09/26 15:00:04;;;;;;;2.30;1.75;;;;;;;;;;10229840;28;19914;-65
2021/09/26 15:05:01;;;;;;;2.55;1.50;;;;;;;;;;10225223;28;20070;-64
2021/09/26 15:09:59;;;;;;;;;;;;;;;;;;10237227;28;20550;-63
2021/09/26 15:14:56;;;;;;;3.15;1.60;;;;;;;;;;10248908;28;19917;-62
2021/09/26 15:19:53;;;;;;;;;;;;;;;;;;10238354;28;20042;-64
2021/09/26 15:24:51;;;;;;;2.22;1.65;;;;;;;;;;10222111;28;19967;-63
2021/09/26 15:29:48;;;;;;;;;;;;;;;;;;10265724;28;20042;-63
2021/09/26 15:34:45;;;;;;;1.92;1.65;;;;;;;;;;10248708;28;19917;-65
2021/09/26 15:39:42;;;;;;;;;;;;;;;;;;10227471;28;20690;-64
2021/09/26 15:44:40;;;;;;;2.10;1.92;;;;;;;;;;10228132;28;19921;-64
2021/09/26 15:49:37;;;;;;;;;;;;;;;;;;10201354;28;20056;-63
2021/09/26 15:54:34;;;;;;;2.75;1.58;;;;;;;;;;10210835;28;19913;-64
2021/09/26 15:59:32;;;;;;;;;;;;;;;;;;10179358;28;20480;-68
2021/09/26 16:04:29;;;;;;;4.65;1.95;;;;;;;;;;10209005;28;19918;-64
2021/09/26 16:09:27;;;;;;;;;;;;;;;;;;10201902;28;20037;-64
2021/09/26 16:14:24;;;;;;;1.60;1.30;;;;;;;;;;10226793;28;19922;-66
2021/09/26 16:19:21;;;;;;;;;;;;;;;;;;10203424;28;20034;-64
2021/09/26 16:24:19;;;;;;;2.15;1.65;;;;;;;;;;10228885;28;19917;-64
2021/09/26 16:29:16;;;;;;;;;;;;;;;;;;10234964;28;20057;-62
2021/09/26 16:34:14;;;;;;;2.20;1.97;;;;;;;;;;10197698;28;19972;-65
2021/09/26 16:39:11;;;;;;;;;;;;;;;;;;10243466;28;20290;-63
2021/09/26 16:44:08;;;;;;;3.50;1.45;;;;;;;;;;10220089;28;19920;-65
2021/09/26 16:49:06;;;;;;;;;;;;;;;;;;10222458;28;20115;-64
2021/09/26 16:54:03;;;;;;;5.97;1.33;;;;;;;;;;10223666;28;19920;-65
2021/09/26 16:59:01;;;;;;;;;;;;;;;;;;10242463;28;20050;-64
2021/09/26 17:03:58;;;;;;;1.87;1.70;;;;;;;;;;10236361;28;20398;-64
2021/09/26 17:08:56;;;;;;;;;;;;;;;;;;10238902;28;20169;-65
2021/09/26 17:13:53;;;;;;;2.35;1.55;;;;;;;;;;10226549;28;19961;-64
2021/09/26 17:18:51;;;;;;;;;;;;;;;;;;10212502;28;20038;-66
2021/09/26 17:23:48;;;;;;;1.48;1.17;;;;;;;;;;10217481;28;20288;-64
2021/09/26 17:28:46;;;;;;;;;;;;;;;;;;10221755;28;20049;-66
2021/09/26 17:33:43;;;;;;;3.80;1.60;;;;;;;;;;10225856;28;19920;-65
2021/09/26 17:38:41;;;;;;;;;;;;;;;;;;10234923;28;20038;-64
2021/09/26 17:43:39;;;;;;;2.90;2.30;;;;;;;;;;10217443;28;20346;-64
2021/09/26 17:48:37;;;;;;;4.03;2.55;;;;;;;;;;10196921;28;20041;-64
2021/09/26 17:53:34;;;;;;;4.32;2.63;;;;;;;;;;10226286;28;20038;-65
2021/09/26 17:58:32;;;;;;;;;;;;;;;;;;10198041;28;20050;-64
2021/09/26 18:03:30;;;;;;;4.77;2.70;;;;;;;;;;10219297;28;20077;-65
2021/09/26 18:08:27;;;;;;;;;;;;;;;;;;10204219;28;20057;-66
2021/09/26 18:13:24;;;;;;;2.78;1.92;;;;;;;;;;10204378;28;19916;-64
2021/09/26 18:18:22;;;;;;;;;;;;;;;;;;10228856;28;20033;-64
2021/09/26 18:23:21;;;;;;;4.28;2.00;;;;;;;;;;10232221;28;20276;-63
2021/09/26 18:28:20;;;;;;;3.83;1.98;;;;;;;;;;10228084;28;20104;-64
2021/09/26 18:33:18;;;;;;;3.28;2.05;;;;;;;;;;10223936;28;20402;-64
2021/09/26 18:38:17;;;;;;;3.83;2.13;;;;;;;;;;10220162;28;20491;-63
2021/09/26 18:43:14;;;;;;;2.65;1.88;;;;;;;;;;10217150;28;20034;-65
2021/09/26 18:48:14;;;;;;;3.67;2.00;;;;;;;;;;10210246;28;20084;-63
2021/09/26 18:53:12;;;;;;;5.07;2.75;;;;;;;;;;10211327;28;20030;-65
2021/09/26 18:58:10;;;;;;;2.47;2.20;;;;;;;;;;10227111;28;20038;-64
2021/09/26 19:03:09;;;;;;;3.03;1.95;;;;;;;;;;10225832;28;20400;-65
2021/09/26 19:08:06;;;;;;;4.35;2.40;;;;;;;;;;10219100;28;20037;-64
2021/09/26 19:13:06;;;;;;;2.37;2.10;;;;;;;;;;10229963;28;20038;-64
2021/09/26 19:18:04;;;;;;;4.13;2.08;;;;;;;;;;10203092;28;20348;-65
2021/09/26 19:23:01;;;;;;;2.87;2.63;;;;;;;;;;10220809;28;20092;-63
2021/09/26 19:27:59;;;;;;;3.33;2.35;;;;;;;;;;10207997;28;20044;-65
2021/09/26 19:32:57;;;;;;;2.70;2.27;;;;;;;;;;10219295;28;20027;-64
2021/09/26 19:37:55;;;;;;;3.25;2.35;;;;;;;;;;10220005;28;20125;-66
2021/09/26 19:42:52;;;;;;;4.15;2.33;;;;;;;;;;10189038;28;20042;-66
2021/09/26 19:47:49;;;;;;;3.63;1.87;;;;;;;;;;10203336;28;20038;-64
2021/09/26 19:52:47;;;;;;;3.97;2.57;;;;;;;;;;10206783;28;20088;-65
2021/09/26 19:57:44;;;;;;;5.17;1.87;;;;;;;;;;10223422;28;20066;-64
2021/09/26 20:02:42;;;;;;;4.47;2.77;;;;;;;;;;10242448;28;20108;-62
2021/09/26 20:07:40;;;;;;;3.17;2.03;;;;;;;;;;10231371;28;20050;-64
2021/09/26 20:12:41;;;;;;;5.57;2.03;;;;;;;;;;10237567;28;20476;-65
2021/09/26 20:17:39;;;;;;;4.25;2.30;;;;;;;;;;10229476;28;20026;-65
2021/09/26 20:22:36;;;;;;;2.53;2.20;;;;;;;;;;10248283;28;20038;-66
2021/09/26 20:27:34;;;;;;;3.23;2.50;;;;;;;;;;10227796;28;20048;-66
2021/09/26 20:32:31;;;;;;;4.07;2.40;;;;;;;;;;10241693;28;20499;-67
2021/09/26 20:37:28;;;;;;;2.70;2.27;;;;;;;;;;10240495;28;20594;-66
2021/09/26 20:42:26;;;;;;;3.83;2.70;;;;;;;;;;10236555;28;20034;-66
2021/09/26 20:47:24;;;;;;;16.70;12.70;;;;;;;;;;10211604;28;20034;-68
2021/09/26 20:52:21;;;;;;;14.57;11.32;;;;;;;;;;10204756;28;20038;-65
2021/09/26 20:57:19;;;;;;;5.05;4.38;;;;;;;;;;10233346;28;20038;-66
2021/09/26 21:02:16;;;;;;;8.67;5.30;;;;;;;;;;10237588;28;20037;-66
2021/09/26 21:07:14;;;;;;;5.07;4.63;;;;;;;;;;10203957;28;20042;-67
2021/09/26 21:12:11;;;;;;;5.40;3.53;;;;;;;;;;10204059;28;20299;-66
2021/09/26 21:17:11;;;;;;;4.20;3.43;;;;;;;;;;10248196;28;20042;-67
2021/09/26 21:22:09;;;;;;;9.57;6.40;;;;;;;;;;10213109;28;21845;-68
2021/09/26 21:27:07;;;;;;;7.75;6.82;;;;;;;;;;10211059;28;20034;-66
2021/09/26 21:32:05;;;;;;;1.25;1.15;;;;;;;;;;10216888;28;20034;-66
2021/09/26 21:37:02;;;;;;;1.77;1.53;;;;;;;;;;10232526;28;20069;-67
2021/09/26 21:42:00;;;;;;;8.38;3.15;;;;;;;;;;10208666;28;20193;-66
2021/09/26 21:46:57;;;;;;;2.30;1.30;;;;;;;;;;10215515;28;20038;-65
2021/09/26 21:51:55;;;;;;;4.67;1.97;;;;;;;;;;10222547;28;20049;-66
2021/09/26 21:56:52;;;;;;;3.53;1.30;;;;;;;;;;10221121;28;20070;-66
2021/09/26 22:01:50;;;;;;;5.83;3.17;;;;;;;;;;10230315;28;20092;-68
2021/09/26 22:06:47;;;;;;;3.13;2.23;;;;;;;;;;10232434;28;20042;-64
2021/09/26 22:11:45;;;;;;;6.03;2.43;;;;;;;;;;10216586;28;20046;-66
2021/09/26 22:16:42;;;;;;;5.25;2.67;;;;;;;;;;10243612;28;20419;-68
2021/09/26 22:21:40;;;;;;;3.70;1.87;;;;;;;;;;10238366;28;20057;-66
2021/09/26 22:26:38;;;;;;;5.25;1.88;;;;;;;;;;10228700;28;20041;-65
2021/09/26 22:31:36;;;;;;;4.80;2.35;;;;;;;;;;10232437;28;20061;-66
2021/09/26 22:36:33;;;;;;;3.40;1.23;;;;;;;;;;10224727;28;20575;-66
2021/09/26 22:41:31;;;;;;;6.13;1.13;;;;;;;;;;10215377;28;20068;-67
2021/09/26 22:46:28;;;;;;;2.13;1.30;;;;;;;;;;10212661;28;20411;-63
2021/09/26 22:51:26;;;;;;;1.70;1.53;;;;;;;;;;10240672;28;20128;-59
2021/09/26 22:56:23;;;;;;;4.10;2.23;;;;;;;;;;10246615;28;20034;-63
2021/09/26 23:01:20;;;;;;;4.87;1.87;;;;;;;;;;10233820;28;20129;-61
2021/09/26 23:06:18;;;;;;;2.63;1.80;;;;;;;;;;10233522;28;20112;-61
2021/09/26 23:11:16;;;;;;;2.00;1.83;;;;;;;;;;10234384;28;20061;-63
2021/09/26 23:16:14;;;;;;;1.63;1.08;;;;;;;;;;10242682;28;20034;-60
2021/09/26 23:21:12;;;;;;;4.05;1.83;;;;;;;;;;10240670;28;20046;-63
2021/09/26 23:26:11;;;;;;;0.65;0.57;;;;;;;;;;10246000;28;20081;-64
2021/09/26 23:31:08;;;;;;;7.00;3.83;;;;;;;;;;10238167;28;20049;-64
2021/09/26 23:36:06;;;;;;;4.90;2.83;;;;;;;;;;10247788;28;20036;-65
2021/09/26 23:41:09;;;;;;;3.23;2.10;;;;;;;;;;10236048;28;20890;-64
2021/09/26 23:46:08;;;;;;;5.10;3.08;;;;;;;;;;10234537;28;20123;-64
2021/09/26 23:51:06;;;;;;;3.70;2.67;;;;;;;;;;10233072;28;20046;-65
2021/09/26 23:56:03;;;;;;;5.33;2.33;;;;;;;;;;10226592;28;20042;-63
